sensor_id;sensor_type;location;lat;lon;timestamp;temperature;humidity
9323;DHT22;4700;48.822;9.270;2023-07-20T00:01:17;19.90;1.00
9323;DHT22;4700;48.822;9.270;2023-07-20T00:04:02;19.90;1.00
9323;DHT22;4700;48.822;9.270;2023-07-20T00:06:48;19.80;1.00
9323;DHT22;4700;48.822;9.270;2023-07-20T00:09:36;19.80;1.00
9323;DHT22;4700;48.822;9.270;2023-07-20T00:12:21;19.70;1.00
9323;DHT22;4700;48.822;9.270;2023-07-20T00:15:08;19.70;1.00
9323;DHT22;4700;48.822;9.270;2023-07-20T00:17:55;19.60;1.00
9323;DHT22;4700;48.822;9.270;2023-07-20T00:20:40;19.70;1.00
9323;DHT22;4700;48.822;9.270;2023-07-20T00:23:26;19.80;1.00
9323;DHT22;4700;48.822;9.270;2023-07-20T00:26:11;19.60;1.00
9323;DHT22;4700;48.822;9.270;2023-07-20T00:28:59;19.60;1.00
9323;DHT22;4700;48.822;9.270;2023-07-20T00:31:45;19.60;1.00
9323;DHT22;4700;48.822;9.270;2023-07-20T00:34:32;19.60;1.00
9323;DHT22;4700;48.822;9.270;2023-07-20T00:37:21;19.50;1.00
9323;DHT22;4700;48.822;9.270;2023-07-20T00:40:07;19.50;1.00
9323;DHT22;4700;48.822;9.270;2023-07-20T00:42:53;19.50;1.00
9323;DHT22;4700;48.822;9.270;2023-07-20T00:45:39;19.40;1.00
9323;DHT22;4700;48.822;9.270;2023-07-20T00:48:25;19.40;1.00
9323;DHT22;4700;48.822;9.270;2023-07-20T00:53:58;19.30;1.00
9323;DHT22;4700;48.822;9.270;2023-07-20T00:56:44;19.30;1.00
9323;DHT22;4700;48.822;9.270;2023-07-20T00:59:30;19.20;1.00
9323;DHT22;4700;48.822;9.270;2023-07-20T01:02:16;19.10;1.00
9323;DHT22;4700;48.822;9.270;2023-07-20T01:05:03;19.10;1.00
9323;DHT22;4700;48.822;9.270;2023-07-20T01:07:55;19.10;1.00
9323;DHT22;4700;48.822;9.270;2023-07-20T01:10:50;19.00;1.00
9323;DHT22;4700;48.822;9.270;2023-07-20T01:13:40;18.90;1.00
9323;DHT22;4700;48.822;9.270;2023-07-20T01:16:27;18.70;1.00
9323;DHT22;4700;48.822;9.270;2023-07-20T01:19:14;18.80;1.00
9323;DHT22;4700;48.822;9.270;2023-07-20T01:22:03;18.80;1.00
9323;DHT22;4700;48.822;9.270;2023-07-20T01:25:18;18.70;1.00
9323;DHT22;4700;48.822;9.270;2023-07-20T01:28:33;18.60;1.00
9323;DHT22;4700;48.822;9.270;2023-07-20T01:31:24;18.50;1.00
9323;DHT22;4700;48.822;9.270;2023-07-20T01:34:12;18.60;1.00
9323;DHT22;4700;48.822;9.270;2023-07-20T01:36:59;18.40;1.00
9323;DHT22;4700;48.822;9.270;2023-07-20T01:39:46;18.50;1.00
9323;DHT22;4700;48.822;9.270;2023-07-20T01:42:32;18.50;1.00
9323;DHT22;4700;48.822;9.270;2023-07-20T01:45:17;18.30;1.00
9323;DHT22;4700;48.822;9.270;2023-07-20T01:48:07;18.40;1.00
9323;DHT22;4700;48.822;9.270;2023-07-20T01:50:53;18.40;1.00
9323;DHT22;4700;48.822;9.270;2023-07-20T01:53:38;18.30;1.00
9323;DHT22;4700;48.822;9.270;2023-07-20T01:56:24;18.30;1.00
9323;DHT22;4700;48.822;9.270;2023-07-20T01:59:11;18.20;1.00
9323;DHT22;4700;48.822;9.270;2023-07-20T02:01:56;18.20;1.00
9323;DHT22;4700;48.822;9.270;2023-07-20T02:04:43;18.20;1.00
9323;DHT22;4700;48.822;9.270;2023-07-20T02:07:29;18.20;1.00
9323;DHT22;4700;48.822;9.270;2023-07-20T02:10:15;18.00;1.00
9323;DHT22;4700;48.822;9.270;2023-07-20T02:13:01;18.00;1.00
9323;DHT22;4700;48.822;9.270;2023-07-20T02:15:47;18.00;1.00
9323;DHT22;4700;48.822;9.270;2023-07-20T02:18:33;17.90;1.00
9323;DHT22;4700;48.822;9.270;2023-07-20T02:21:22;17.90;1.00
9323;DHT22;4700;48.822;9.270;2023-07-20T02:24:07;18.00;1.00
9323;DHT22;4700;48.822;9.270;2023-07-20T02:26:53;17.80;1.00
9323;DHT22;4700;48.822;9.270;2023-07-20T02:29:40;17.80;1.00
9323;DHT22;4700;48.822;9.270;2023-07-20T02:32:25;17.80;1.00
9323;DHT22;4700;48.822;9.270;2023-07-20T02:35:11;17.70;1.00
9323;DHT22;4700;48.822;9.270;2023-07-20T02:37:59;17.70;1.00
9323;DHT22;4700;48.822;9.270;2023-07-20T02:40:44;17.70;1.00
9323;DHT22;4700;48.822;9.270;2023-07-20T02:43:30;17.70;1.00
9323;DHT22;4700;48.822;9.270;2023-07-20T02:46:16;17.70;1.00
9323;DHT22;4700;48.822;9.270;2023-07-20T02:49:02;17.70;1.00
9323;DHT22;4700;48.822;9.270;2023-07-20T02:51:48;17.60;1.00
9323;DHT22;4700;48.822;9.270;2023-07-20T02:54:35;17.60;1.00
9323;DHT22;4700;48.822;9.270;2023-07-20T02:57:21;17.60;1.00
9323;DHT22;4700;48.822;9.270;2023-07-20T03:00:15;17.50;1.00
9323;DHT22;4700;48.822;9.270;2023-07-20T03:03:03;17.60;1.00
9323;DHT22;4700;48.822;9.270;2023-07-20T03:05:54;17.50;1.00
9323;DHT22;4700;48.822;9.270;2023-07-20T03:08:41;17.50;1.00
9323;DHT22;4700;48.822;9.270;2023-07-20T03:11:33;17.40;1.00
9323;DHT22;4700;48.822;9.270;2023-07-20T03:14:19;17.30;1.00
9323;DHT22;4700;48.822;9.270;2023-07-20T03:17:05;17.40;1.00
9323;DHT22;4700;48.822;9.270;2023-07-20T03:19:53;17.40;1.00
9323;DHT22;4700;48.822;9.270;2023-07-20T03:22:39;17.40;1.00
9323;DHT22;4700;48.822;9.270;2023-07-20T03:25:25;17.40;1.00
9323;DHT22;4700;48.822;9.270;2023-07-20T03:33:45;17.30;1.00
9323;DHT22;4700;48.822;9.270;2023-07-20T03:36:31;17.40;1.00
9323;DHT22;4700;48.822;9.270;2023-07-20T03:39:16;17.50;1.00
9323;DHT22;4700;48.822;9.270;2023-07-20T03:42:02;17.30;1.00
9323;DHT22;4700;48.822;9.270;2023-07-20T03:44:50;17.30;1.00
9323;DHT22;4700;48.822;9.270;2023-07-20T03:47:36;17.30;1.00
9323;DHT22;4700;48.822;9.270;2023-07-20T03:50:22;17.30;1.00
9323;DHT22;4700;48.822;9.270;2023-07-20T03:53:07;17.20;1.00
9323;DHT22;4700;48.822;9.270;2023-07-20T03:55:53;17.30;1.00
9323;DHT22;4700;48.822;9.270;2023-07-20T03:58:40;17.30;1.00
9323;DHT22;4700;48.822;9.270;2023-07-20T04:01:27;17.30;1.00
9323;DHT22;4700;48.822;9.270;2023-07-20T04:04:15;17.20;1.00
9323;DHT22;4700;48.822;9.270;2023-07-20T04:07:01;17.20;1.00
9323;DHT22;4700;48.822;9.270;2023-07-20T04:12:33;17.10;1.00
9323;DHT22;4700;48.822;9.270;2023-07-20T04:15:18;17.40;1.00
9323;DHT22;4700;48.822;9.270;2023-07-20T04:18:05;17.40;1.00
9323;DHT22;4700;48.822;9.270;2023-07-20T04:20:51;17.40;1.00
9323;DHT22;4700;48.822;9.270;2023-07-20T04:23:37;17.60;1.00
9323;DHT22;4700;48.822;9.270;2023-07-20T04:26:22;17.70;1.00
9323;DHT22;4700;48.822;9.270;2023-07-20T04:29:08;17.80;1.00
9323;DHT22;4700;48.822;9.270;2023-07-20T04:31:53;17.90;1.00
9323;DHT22;4700;48.822;9.270;2023-07-20T04:34:40;18.00;1.00
9323;DHT22;4700;48.822;9.270;2023-07-20T04:37:26;18.10;1.00
9323;DHT22;4700;48.822;9.270;2023-07-20T04:40:15;18.10;1.00
9323;DHT22;4700;48.822;9.270;2023-07-20T04:43:00;18.20;1.00
9323;DHT22;4700;48.822;9.270;2023-07-20T04:45:47;18.20;1.00
9323;DHT22;4700;48.822;9.270;2023-07-20T04:48:33;18.30;1.00
9323;DHT22;4700;48.822;9.270;2023-07-20T04:51:19;18.30;1.00
9323;DHT22;4700;48.822;9.270;2023-07-20T04:54:06;18.30;1.00
9323;DHT22;4700;48.822;9.270;2023-07-20T04:56:52;18.30;1.00
9323;DHT22;4700;48.822;9.270;2023-07-20T04:59:38;18.40;1.00
9323;DHT22;4700;48.822;9.270;2023-07-20T05:02:23;18.50;1.00
9323;DHT22;4700;48.822;9.270;2023-07-20T05:05:09;18.60;1.00
9323;DHT22;4700;48.822;9.270;2023-07-20T05:07:56;18.70;1.00
9323;DHT22;4700;48.822;9.270;2023-07-20T05:10:43;18.90;1.00
9323;DHT22;4700;48.822;9.270;2023-07-20T05:13:28;19.00;1.00
9323;DHT22;4700;48.822;9.270;2023-07-20T05:16:17;19.10;1.00
9323;DHT22;4700;48.822;9.270;2023-07-20T05:19:03;19.20;1.00
9323;DHT22;4700;48.822;9.270;2023-07-20T05:21:48;19.30;1.00
9323;DHT22;4700;48.822;9.270;2023-07-20T05:24:35;19.50;1.00
9323;DHT22;4700;48.822;9.270;2023-07-20T05:27:21;19.40;1.00
9323;DHT22;4700;48.822;9.270;2023-07-20T05:30:08;19.40;1.00
9323;DHT22;4700;48.822;9.270;2023-07-20T05:32:54;19.60;1.00
9323;DHT22;4700;48.822;9.270;2023-07-20T05:35:39;19.60;1.00
9323;DHT22;4700;48.822;9.270;2023-07-20T05:38:25;19.60;1.00
9323;DHT22;4700;48.822;9.270;2023-07-20T05:41:12;19.30;1.00
9323;DHT22;4700;48.822;9.270;2023-07-20T05:43:58;19.60;1.00
9323;DHT22;4700;48.822;9.270;2023-07-20T05:46:43;19.60;1.00
9323;DHT22;4700;48.822;9.270;2023-07-20T05:49:31;19.70;1.00
9323;DHT22;4700;48.822;9.270;2023-07-20T05:52:17;19.80;1.00
9323;DHT22;4700;48.822;9.270;2023-07-20T05:55:03;19.90;1.00
9323;DHT22;4700;48.822;9.270;2023-07-20T06:00:36;22.40;1.00
9323;DHT22;4700;48.822;9.270;2023-07-20T06:03:22;20.20;1.00
9323;DHT22;4700;48.822;9.270;2023-07-20T06:06:08;20.30;1.00
9323;DHT22;4700;48.822;9.270;2023-07-20T06:08:56;20.60;1.00
9323;DHT22;4700;48.822;9.270;2023-07-20T06:11:41;20.60;1.00
9323;DHT22;4700;48.822;9.270;2023-07-20T06:14:28;20.80;1.00
9323;DHT22;4700;48.822;9.270;2023-07-20T06:17:14;21.40;1.00
9323;DHT22;4700;48.822;9.270;2023-07-20T06:20:00;22.50;1.00
9323;DHT22;4700;48.822;9.270;2023-07-20T06:22:45;22.60;1.00
9323;DHT22;4700;48.822;9.270;2023-07-20T06:25:32;22.80;1.00
9323;DHT22;4700;48.822;9.270;2023-07-20T06:31:05;23.70;1.00
9323;DHT22;4700;48.822;9.270;2023-07-20T06:33:51;24.60;1.00
9323;DHT22;4700;48.822;9.270;2023-07-20T06:36:36;25.90;1.00
9323;DHT22;4700;48.822;9.270;2023-07-20T06:39:23;25.80;99.90
9323;DHT22;4700;48.822;9.270;2023-07-20T06:42:09;25.80;1.00
9323;DHT22;4700;48.822;9.270;2023-07-20T06:44:57;26.90;1.00
9323;DHT22;4700;48.822;9.270;2023-07-20T06:47:44;26.30;99.90
9323;DHT22;4700;48.822;9.270;2023-07-20T06:50:30;26.40;99.90
9323;DHT22;4700;48.822;9.270;2023-07-20T06:53:16;28.50;1.00
9323;DHT22;4700;48.822;9.270;2023-07-20T06:56:03;28.50;99.90
9323;DHT22;4700;48.822;9.270;2023-07-20T06:58:48;28.20;99.90
9323;DHT22;4700;48.822;9.270;2023-07-20T07:01:35;26.20;1.00
9323;DHT22;4700;48.822;9.270;2023-07-20T07:04:22;26.60;99.90
9323;DHT22;4700;48.822;9.270;2023-07-20T07:07:08;25.40;99.90
9323;DHT22;4700;48.822;9.270;2023-07-20T07:09:54;25.20;99.90
9323;DHT22;4700;48.822;9.270;2023-07-20T07:12:39;25.10;99.90
9323;DHT22;4700;48.822;9.270;2023-07-20T07:15:26;24.90;99.90
9323;DHT22;4700;48.822;9.270;2023-07-20T07:18:11;26.30;99.90
9323;DHT22;4700;48.822;9.270;2023-07-20T07:20:59;28.00;99.90
9323;DHT22;4700;48.822;9.270;2023-07-20T07:23:45;28.70;1.00
9323;DHT22;4700;48.822;9.270;2023-07-20T07:26:31;28.50;99.90
9323;DHT22;4700;48.822;9.270;2023-07-20T07:29:18;27.00;99.90
9323;DHT22;4700;48.822;9.270;2023-07-20T07:32:04;27.20;99.90
9323;DHT22;4700;48.822;9.270;2023-07-20T07:34:51;27.60;99.90
9323;DHT22;4700;48.822;9.270;2023-07-20T07:37:39;28.20;99.90
9323;DHT22;4700;48.822;9.270;2023-07-20T07:40:25;28.30;99.90
9323;DHT22;4700;48.822;9.270;2023-07-20T07:43:11;28.60;99.90
9323;DHT22;4700;48.822;9.270;2023-07-20T07:45:58;30.40;1.00
9323;DHT22;4700;48.822;9.270;2023-07-20T07:48:45;30.80;99.90
9323;DHT22;4700;48.822;9.270;2023-07-20T07:54:19;28.70;99.90
9323;DHT22;4700;48.822;9.270;2023-07-20T07:57:05;28.30;99.90
9323;DHT22;4700;48.822;9.270;2023-07-20T07:59:51;30.20;99.90
9323;DHT22;4700;48.822;9.270;2023-07-20T08:02:37;31.20;99.90
9323;DHT22;4700;48.822;9.270;2023-07-20T08:05:23;33.20;99.90
9323;DHT22;4700;48.822;9.270;2023-07-20T08:08:08;34.60;99.90
9323;DHT22;4700;48.822;9.270;2023-07-20T08:10:55;35.00;99.90
9323;DHT22;4700;48.822;9.270;2023-07-20T08:13:41;36.60;1.00
9323;DHT22;4700;48.822;9.270;2023-07-20T08:16:27;37.40;99.90
9323;DHT22;4700;48.822;9.270;2023-07-20T08:19:13;37.80;99.90
9323;DHT22;4700;48.822;9.270;2023-07-20T08:21:59;39.00;99.90
9323;DHT22;4700;48.822;9.270;2023-07-20T08:24:45;40.10;99.90
9323;DHT22;4700;48.822;9.270;2023-07-20T08:27:32;38.40;99.90
9323;DHT22;4700;48.822;9.270;2023-07-20T08:30:21;33.80;99.90
9323;DHT22;4700;48.822;9.270;2023-07-20T08:33:12;32.40;99.90
9323;DHT22;4700;48.822;9.270;2023-07-20T08:35:58;30.60;99.90
9323;DHT22;4700;48.822;9.270;2023-07-20T08:38:44;29.30;99.90
9323;DHT22;4700;48.822;9.270;2023-07-20T08:41:31;28.90;99.90
9323;DHT22;4700;48.822;9.270;2023-07-20T08:44:18;26.80;99.90
9323;DHT22;4700;48.822;9.270;2023-07-20T08:47:12;26.50;99.90
9323;DHT22;4700;48.822;9.270;2023-07-20T08:50:02;25.50;99.90
9323;DHT22;4700;48.822;9.270;2023-07-20T08:52:52;25.60;99.90
9323;DHT22;4700;48.822;9.270;2023-07-20T08:55:39;27.90;99.90
9323;DHT22;4700;48.822;9.270;2023-07-20T08:58:26;31.00;99.90
9323;DHT22;4700;48.822;9.270;2023-07-20T09:01:14;33.40;99.90
9323;DHT22;4700;48.822;9.270;2023-07-20T09:04:03;35.60;99.90
9323;DHT22;4700;48.822;9.270;2023-07-20T09:06:50;37.10;99.90
9323;DHT22;4700;48.822;9.270;2023-07-20T09:09:39;37.40;99.90
9323;DHT22;4700;48.822;9.270;2023-07-20T09:12:25;37.10;99.90
9323;DHT22;4700;48.822;9.270;2023-07-20T09:15:12;37.80;99.90
9323;DHT22;4700;48.822;9.270;2023-07-20T09:18:03;37.20;99.90
9323;DHT22;4700;48.822;9.270;2023-07-20T09:20:49;36.70;99.90
9323;DHT22;4700;48.822;9.270;2023-07-20T09:23:37;35.10;99.90
9323;DHT22;4700;48.822;9.270;2023-07-20T09:29:18;34.30;99.90
9323;DHT22;4700;48.822;9.270;2023-07-20T09:32:05;38.20;99.90
9323;DHT22;4700;48.822;9.270;2023-07-20T09:34:52;38.10;99.90
9323;DHT22;4700;48.822;9.270;2023-07-20T09:37:38;37.50;99.90
9323;DHT22;4700;48.822;9.270;2023-07-20T09:40:30;32.10;99.90
9323;DHT22;4700;48.822;9.270;2023-07-20T09:43:23;32.30;99.90
9323;DHT22;4700;48.822;9.270;2023-07-20T09:46:09;28.70;99.90
9323;DHT22;4700;48.822;9.270;2023-07-20T09:48:54;27.50;99.90
9323;DHT22;4700;48.822;9.270;2023-07-20T09:54:31;29.00;99.90
9323;DHT22;4700;48.822;9.270;2023-07-20T09:57:18;34.60;99.90
9323;DHT22;4700;48.822;9.270;2023-07-20T10:00:06;35.40;99.90
9323;DHT22;4700;48.822;9.270;2023-07-20T10:02:58;36.90;99.90
9323;DHT22;4700;48.822;9.270;2023-07-20T10:05:48;38.10;99.90
9323;DHT22;4700;48.822;9.270;2023-07-20T10:08:39;37.80;99.90
9323;DHT22;4700;48.822;9.270;2023-07-20T10:11:29;34.60;99.90
9323;DHT22;4700;48.822;9.270;2023-07-20T10:14:20;34.60;99.90
9323;DHT22;4700;48.822;9.270;2023-07-20T10:17:12;33.10;99.90
9323;DHT22;4700;48.822;9.270;2023-07-20T10:20:01;31.80;99.90
9323;DHT22;4700;48.822;9.270;2023-07-20T10:22:49;33.70;99.90
9323;DHT22;4700;48.822;9.270;2023-07-20T10:25:40;34.20;99.90
9323;DHT22;4700;48.822;9.270;2023-07-20T10:28:27;34.80;99.90
9323;DHT22;4700;48.822;9.270;2023-07-20T10:31:14;35.20;99.90
9323;DHT22;4700;48.822;9.270;2023-07-20T10:34:01;34.50;99.90
9323;DHT22;4700;48.822;9.270;2023-07-20T10:36:47;31.80;99.90
9323;DHT22;4700;48.822;9.270;2023-07-20T10:39:36;30.30;99.90
9323;DHT22;4700;48.822;9.270;2023-07-20T10:42:23;30.30;99.90
9323;DHT22;4700;48.822;9.270;2023-07-20T10:45:18;28.00;1.00
9323;DHT22;4700;48.822;9.270;2023-07-20T10:47:55;27.90;99.90
9323;DHT22;4700;48.822;9.270;2023-07-20T10:50:42;27.30;99.90
9323;DHT22;4700;48.822;9.270;2023-07-20T10:53:28;26.60;99.90
9323;DHT22;4700;48.822;9.270;2023-07-20T10:56:21;26.10;99.90
9323;DHT22;4700;48.822;9.270;2023-07-20T10:59:19;26.10;99.90
9323;DHT22;4700;48.822;9.270;2023-07-20T11:02:06;26.20;99.90
9323;DHT22;4700;48.822;9.270;2023-07-20T11:04:57;25.90;99.90
9323;DHT22;4700;48.822;9.270;2023-07-20T11:07:43;26.40;99.90
9323;DHT22;4700;48.822;9.270;2023-07-20T11:10:31;26.90;99.90
9323;DHT22;4700;48.822;9.270;2023-07-20T11:13:22;27.50;99.90
9323;DHT22;4700;48.822;9.270;2023-07-20T11:16:11;26.70;99.90
9323;DHT22;4700;48.822;9.270;2023-07-20T11:18:58;26.70;99.90
9323;DHT22;4700;48.822;9.270;2023-07-20T11:21:46;26.60;99.90
9323;DHT22;4700;48.822;9.270;2023-07-20T11:24:40;26.00;1.00
9323;DHT22;4700;48.822;9.270;2023-07-20T11:27:27;26.10;99.90
9323;DHT22;4700;48.822;9.270;2023-07-20T11:30:16;26.30;99.90
9323;DHT22;4700;48.822;9.270;2023-07-20T11:33:03;26.00;99.90
9323;DHT22;4700;48.822;9.270;2023-07-20T11:35:49;26.10;99.90
9323;DHT22;4700;48.822;9.270;2023-07-20T11:38:36;26.30;1.00
9323;DHT22;4700;48.822;9.270;2023-07-20T11:41:22;26.50;99.90
9323;DHT22;4700;48.822;9.270;2023-07-20T11:44:09;26.70;99.90
9323;DHT22;4700;48.822;9.270;2023-07-20T11:47:00;26.60;99.90
9323;DHT22;4700;48.822;9.270;2023-07-20T11:49:49;26.40;99.90
9323;DHT22;4700;48.822;9.270;2023-07-20T11:52:41;26.40;99.90
9323;DHT22;4700;48.822;9.270;2023-07-20T11:55:29;26.20;99.90
9323;DHT22;4700;48.822;9.270;2023-07-20T11:58:15;26.60;99.90
9323;DHT22;4700;48.822;9.270;2023-07-20T12:01:03;26.30;99.90
9323;DHT22;4700;48.822;9.270;2023-07-20T12:03:49;26.30;99.90
9323;DHT22;4700;48.822;9.270;2023-07-20T12:06:37;26.10;99.90
9323;DHT22;4700;48.822;9.270;2023-07-20T12:09:22;26.10;99.90
9323;DHT22;4700;48.822;9.270;2023-07-20T12:12:10;26.20;99.90
9323;DHT22;4700;48.822;9.270;2023-07-20T12:15:14;26.00;99.90
9323;DHT22;4700;48.822;9.270;2023-07-20T12:18:01;26.00;99.90
9323;DHT22;4700;48.822;9.270;2023-07-20T12:20:58;25.90;99.90
9323;DHT22;4700;48.822;9.270;2023-07-20T12:26:32;26.10;99.90
9323;DHT22;4700;48.822;9.270;2023-07-20T12:29:18;26.00;99.90
9323;DHT22;4700;48.822;9.270;2023-07-20T12:32:05;25.90;99.90
9323;DHT22;4700;48.822;9.270;2023-07-20T12:34:54;26.70;99.90
9323;DHT22;4700;48.822;9.270;2023-07-20T12:37:40;26.00;99.90
9323;DHT22;4700;48.822;9.270;2023-07-20T12:40:28;26.10;99.90
9323;DHT22;4700;48.822;9.270;2023-07-20T12:43:13;26.10;99.90
9323;DHT22;4700;48.822;9.270;2023-07-20T12:45:59;26.20;99.90
9323;DHT22;4700;48.822;9.270;2023-07-20T12:48:45;26.20;99.90
9323;DHT22;4700;48.822;9.270;2023-07-20T12:51:32;26.20;1.00
9323;DHT22;4700;48.822;9.270;2023-07-20T12:54:17;26.30;99.90
9323;DHT22;4700;48.822;9.270;2023-07-20T12:57:05;26.30;99.90
9323;DHT22;4700;48.822;9.270;2023-07-20T12:59:51;26.40;99.90
9323;DHT22;4700;48.822;9.270;2023-07-20T13:02:38;26.40;99.90
9323;DHT22;4700;48.822;9.270;2023-07-20T13:05:24;26.60;99.90
9323;DHT22;4700;48.822;9.270;2023-07-20T13:08:10;26.80;99.90
9323;DHT22;4700;48.822;9.270;2023-07-20T13:10:56;26.90;99.90
9323;DHT22;4700;48.822;9.270;2023-07-20T13:13:43;26.80;99.90
9323;DHT22;4700;48.822;9.270;2023-07-20T13:16:29;26.70;99.90
9323;DHT22;4700;48.822;9.270;2023-07-20T13:19:15;26.60;99.90
9323;DHT22;4700;48.822;9.270;2023-07-20T13:22:03;26.60;99.90
9323;DHT22;4700;48.822;9.270;2023-07-20T13:24:49;26.00;99.90
9323;DHT22;4700;48.822;9.270;2023-07-20T13:27:35;25.80;99.90
9323;DHT22;4700;48.822;9.270;2023-07-20T13:30:23;25.60;99.90
9323;DHT22;4700;48.822;9.270;2023-07-20T13:33:09;25.60;99.90
9323;DHT22;4700;48.822;9.270;2023-07-20T13:35:55;25.90;99.90
9323;DHT22;4700;48.822;9.270;2023-07-20T13:38:40;26.10;99.90
9323;DHT22;4700;48.822;9.270;2023-07-20T13:41:26;26.30;99.90
9323;DHT22;4700;48.822;9.270;2023-07-20T13:44:16;26.40;99.90
9323;DHT22;4700;48.822;9.270;2023-07-20T13:47:04;26.70;99.90
9323;DHT22;4700;48.822;9.270;2023-07-20T13:49:50;26.80;99.90
9323;DHT22;4700;48.822;9.270;2023-07-20T13:52:36;26.70;99.90
9323;DHT22;4700;48.822;9.270;2023-07-20T13:55:22;26.60;99.90
9323;DHT22;4700;48.822;9.270;2023-07-20T13:58:08;26.30;99.90
9323;DHT22;4700;48.822;9.270;2023-07-20T14:00:56;26.30;99.90
9323;DHT22;4700;48.822;9.270;2023-07-20T14:03:43;26.30;99.90
9323;DHT22;4700;48.822;9.270;2023-07-20T14:06:32;26.10;99.90
9323;DHT22;4700;48.822;9.270;2023-07-20T14:09:18;26.20;99.90
9323;DHT22;4700;48.822;9.270;2023-07-20T14:12:04;26.30;99.90
9323;DHT22;4700;48.822;9.270;2023-07-20T14:14:50;26.30;99.90
9323;DHT22;4700;48.822;9.270;2023-07-20T14:17:36;26.40;99.90
9323;DHT22;4700;48.822;9.270;2023-07-20T14:20:23;26.40;99.90
9323;DHT22;4700;48.822;9.270;2023-07-20T14:23:09;26.30;99.90
9323;DHT22;4700;48.822;9.270;2023-07-20T14:25:55;26.10;99.90
9323;DHT22;4700;48.822;9.270;2023-07-20T14:28:43;26.10;99.90
9323;DHT22;4700;48.822;9.270;2023-07-20T14:31:29;26.20;99.90
9323;DHT22;4700;48.822;9.270;2023-07-20T14:34:16;26.30;99.90
9323;DHT22;4700;48.822;9.270;2023-07-20T14:37:05;26.30;99.90
9323;DHT22;4700;48.822;9.270;2023-07-20T14:39:51;26.40;99.90
9323;DHT22;4700;48.822;9.270;2023-07-20T14:42:37;26.40;99.90
9323;DHT22;4700;48.822;9.270;2023-07-20T14:45:25;26.50;99.90
9323;DHT22;4700;48.822;9.270;2023-07-20T14:48:11;26.50;99.90
9323;DHT22;4700;48.822;9.270;2023-07-20T14:50:56;26.50;99.90
9323;DHT22;4700;48.822;9.270;2023-07-20T14:53:44;26.50;99.90
9323;DHT22;4700;48.822;9.270;2023-07-20T14:56:29;26.50;99.90
9323;DHT22;4700;48.822;9.270;2023-07-20T14:59:15;26.60;99.90
9323;DHT22;4700;48.822;9.270;2023-07-20T15:02:02;26.70;99.90
9323;DHT22;4700;48.822;9.270;2023-07-20T15:04:48;26.70;99.90
9323;DHT22;4700;48.822;9.270;2023-07-20T15:07:34;26.60;99.90
9323;DHT22;4700;48.822;9.270;2023-07-20T15:10:21;26.50;99.90
9323;DHT22;4700;48.822;9.270;2023-07-20T15:13:08;26.50;99.90
9323;DHT22;4700;48.822;9.270;2023-07-20T15:15:56;26.80;99.90
9323;DHT22;4700;48.822;9.270;2023-07-20T15:21:27;26.70;99.90
9323;DHT22;4700;48.822;9.270;2023-07-20T15:24:16;26.60;99.90
9323;DHT22;4700;48.822;9.270;2023-07-20T15:27:06;26.60;99.90
9323;DHT22;4700;48.822;9.270;2023-07-20T15:32:38;26.70;99.90
9323;DHT22;4700;48.822;9.270;2023-07-20T15:35:24;26.70;99.90
9323;DHT22;4700;48.822;9.270;2023-07-20T15:38:11;26.60;99.90
9323;DHT22;4700;48.822;9.270;2023-07-20T15:40:56;26.70;99.90
9323;DHT22;4700;48.822;9.270;2023-07-20T15:46:54;27.00;99.90
9323;DHT22;4700;48.822;9.270;2023-07-20T15:49:43;26.80;99.90
9323;DHT22;4700;48.822;9.270;2023-07-20T15:52:29;26.70;99.90
9323;DHT22;4700;48.822;9.270;2023-07-20T15:55:14;26.60;99.90
9323;DHT22;4700;48.822;9.270;2023-07-20T15:58:00;26.60;99.90
9323;DHT22;4700;48.822;9.270;2023-07-20T16:00:53;26.60;99.90
9323;DHT22;4700;48.822;9.270;2023-07-20T16:03:40;26.50;99.90
9323;DHT22;4700;48.822;9.270;2023-07-20T16:06:26;26.40;99.90
9323;DHT22;4700;48.822;9.270;2023-07-20T16:09:12;26.30;99.90
9323;DHT22;4700;48.822;9.270;2023-07-20T16:11:58;26.40;99.90
9323;DHT22;4700;48.822;9.270;2023-07-20T16:14:46;26.40;99.90
9323;DHT22;4700;48.822;9.270;2023-07-20T16:17:34;26.40;99.90
9323;DHT22;4700;48.822;9.270;2023-07-20T16:20:19;26.30;99.90
9323;DHT22;4700;48.822;9.270;2023-07-20T16:23:05;26.20;99.90
9323;DHT22;4700;48.822;9.270;2023-07-20T16:25:51;26.10;99.90
9323;DHT22;4700;48.822;9.270;2023-07-20T16:28:38;26.20;99.90
9323;DHT22;4700;48.822;9.270;2023-07-20T16:34:12;25.90;99.90
9323;DHT22;4700;48.822;9.270;2023-07-20T16:36:58;25.90;99.90
9323;DHT22;4700;48.822;9.270;2023-07-20T16:39:44;25.90;99.90
9323;DHT22;4700;48.822;9.270;2023-07-20T16:42:29;25.80;99.90
9323;DHT22;4700;48.822;9.270;2023-07-20T16:45:15;25.80;99.90
9323;DHT22;4700;48.822;9.270;2023-07-20T16:48:01;26.40;99.90
9323;DHT22;4700;48.822;9.270;2023-07-20T16:50:47;25.70;99.90
9323;DHT22;4700;48.822;9.270;2023-07-20T16:53:33;25.70;99.90
9323;DHT22;4700;48.822;9.270;2023-07-20T16:56:19;25.60;99.90
9323;DHT22;4700;48.822;9.270;2023-07-20T16:59:04;25.50;99.90
9323;DHT22;4700;48.822;9.270;2023-07-20T17:01:50;25.30;99.90
9323;DHT22;4700;48.822;9.270;2023-07-20T17:04:36;25.20;99.90
9323;DHT22;4700;48.822;9.270;2023-07-20T17:07:23;24.60;99.90
9323;DHT22;4700;48.822;9.270;2023-07-20T17:10:10;25.20;99.90
9323;DHT22;4700;48.822;9.270;2023-07-20T17:12:56;25.10;99.90
9323;DHT22;4700;48.822;9.270;2023-07-20T17:15:45;25.00;99.90
9323;DHT22;4700;48.822;9.270;2023-07-20T17:18:31;25.00;99.90
9323;DHT22;4700;48.822;9.270;2023-07-20T17:21:17;25.10;99.90
9323;DHT22;4700;48.822;9.270;2023-07-20T17:24:06;25.10;99.90
9323;DHT22;4700;48.822;9.270;2023-07-20T17:26:52;25.10;99.90
9323;DHT22;4700;48.822;9.270;2023-07-20T17:29:38;25.00;99.90
9323;DHT22;4700;48.822;9.270;2023-07-20T17:32:24;25.00;99.90
9323;DHT22;4700;48.822;9.270;2023-07-20T17:35:09;24.90;99.90
9323;DHT22;4700;48.822;9.270;2023-07-20T17:37:57;24.80;99.90
9323;DHT22;4700;48.822;9.270;2023-07-20T17:40:44;24.70;99.90
9323;DHT22;4700;48.822;9.270;2023-07-20T17:43:32;24.60;99.90
9323;DHT22;4700;48.822;9.270;2023-07-20T17:46:18;24.60;99.90
9323;DHT22;4700;48.822;9.270;2023-07-20T17:49:03;24.50;99.90
9323;DHT22;4700;48.822;9.270;2023-07-20T17:51:50;24.40;99.90
9323;DHT22;4700;48.822;9.270;2023-07-20T17:54:35;24.20;99.90
9323;DHT22;4700;48.822;9.270;2023-07-20T17:57:22;24.40;99.90
9323;DHT22;4700;48.822;9.270;2023-07-20T18:00:09;24.30;99.90
9323;DHT22;4700;48.822;9.270;2023-07-20T18:02:55;24.20;99.90
9323;DHT22;4700;48.822;9.270;2023-07-20T18:05:43;24.10;99.90
9323;DHT22;4700;48.822;9.270;2023-07-20T18:08:30;24.00;99.90
9323;DHT22;4700;48.822;9.270;2023-07-20T18:11:18;23.90;99.90
9323;DHT22;4700;48.822;9.270;2023-07-20T18:16:52;23.70;99.90
9323;DHT22;4700;48.822;9.270;2023-07-20T18:19:38;23.70;99.90
9323;DHT22;4700;48.822;9.270;2023-07-20T18:22:25;23.60;99.90
9323;DHT22;4700;48.822;9.270;2023-07-20T18:25:11;23.50;99.90
9323;DHT22;4700;48.822;9.270;2023-07-20T18:27:56;23.40;99.90
9323;DHT22;4700;48.822;9.270;2023-07-20T18:30:43;23.20;99.90
9323;DHT22;4700;48.822;9.270;2023-07-20T18:33:30;23.40;99.90
9323;DHT22;4700;48.822;9.270;2023-07-20T18:36:15;23.30;99.90
9323;DHT22;4700;48.822;9.270;2023-07-20T18:39:04;23.30;99.90
9323;DHT22;4700;48.822;9.270;2023-07-20T18:41:49;23.20;99.90
9323;DHT22;4700;48.822;9.270;2023-07-20T18:44:35;23.10;99.90
9323;DHT22;4700;48.822;9.270;2023-07-20T18:47:22;23.00;1.00
9323;DHT22;4700;48.822;9.270;2023-07-20T18:50:09;23.00;99.90
9323;DHT22;4700;48.822;9.270;2023-07-20T18:55:44;22.80;99.90
9323;DHT22;4700;48.822;9.270;2023-07-20T18:58:30;22.70;99.90
9323;DHT22;4700;48.822;9.270;2023-07-20T19:01:15;22.60;99.90